DEALR2 ETNL-ETNL
Flight info
| Callsign | DEALR2 |
|---|---|
| Flight time | 0h 11m |
| Altitude | 21000 |
| Route | LAG NL127 DCT LUWIL DCT UBAKA DCT PENEK DCT HOZ VFR DCT SAWAZ TR208STAY/0100 SAWAZ/M085F220 IFR DCT PENEK DCT UBAKA DCT LUWIL DCT LAG |
| Aircraft | EUFI/M-GIRLTUV/LB21 |
Departure
| Time | 2026-04-24 19:50 |
|---|---|
| Airport | Rostock-Laage Airport (ETNL) |
Arrival
| Time | 2026-04-24 20:01 |
|---|---|
| Airport | Rostock-Laage Airport (ETNL) |
| Time | Latitude | Longitude | Altitude | Speed | Heading |
|---|---|---|---|---|---|
| 2026-04-24 18:54 | 50.64324 | 12.37648 | 21471 ft | 347 kts | 324° |
| 2026-04-24 18:55 | 50.68201 | 12.40497 | 21352 ft | 413 kts | 45° |
| 2026-04-24 18:55 | 50.70241 | 12.44135 | 21280 ft | 460 kts | 45° |
| 2026-04-24 18:55 | 50.72366 | 12.47927 | 21196 ft | 466 kts | 47° |
| 2026-04-24 18:56 | 50.74016 | 12.52402 | 20552 ft | 502 kts | 68° |
| 2026-04-24 18:56 | 50.74926 | 12.57945 | 19953 ft | 531 kts | 75° |
| 2026-04-24 18:56 | 50.76069 | 12.63552 | 19990 ft | 571 kts | 58° |
| 2026-04-24 18:56 | 50.78729 | 12.68328 | 20454 ft | 602 kts | 39° |
| 2026-04-24 18:57 | 50.81854 | 12.72650 | 20840 ft | 549 kts | 37° |
| 2026-04-24 18:57 | 50.84937 | 12.75371 | 20731 ft | 492 kts | 14° |
| 2026-04-24 18:57 | 50.88053 | 12.75861 | 20744 ft | 447 kts | 350° |
| 2026-04-24 18:57 | 50.90976 | 12.74473 | 21072 ft | 427 kts | 331° |
| 2026-04-24 18:58 | 50.93608 | 12.71753 | 20763 ft | 448 kts | 314° |
| 2026-04-24 18:58 | 50.95292 | 12.67744 | 20157 ft | 430 kts | 288° |
| 2026-04-24 18:58 | 50.95291 | 12.63085 | 19347 ft | 439 kts | 257° |
| 2026-04-24 18:58 | 50.93711 | 12.58778 | 18432 ft | 510 kts | 226° |
| 2026-04-24 18:59 | 50.90641 | 12.55412 | 18048 ft | 539 kts | 220° |
| 2026-04-24 18:59 | 50.87743 | 12.51818 | 17672 ft | 520 kts | 221° |
| 2026-04-24 18:59 | 50.85090 | 12.48316 | 17458 ft | 466 kts | 223° |
| 2026-04-24 18:59 | 50.82647 | 12.45000 | 17579 ft | 460 kts | 224° |
| 2026-04-24 19:00 | 50.80340 | 12.41446 | 17152 ft | 451 kts | 234° |
| 2026-04-24 19:00 | 50.78198 | 12.37061 | 16705 ft | 594 kts | 235° |
| 2026-04-24 19:00 | 50.76016 | 12.31939 | 16989 ft | 527 kts | 240° |
| 2026-04-24 19:00 | 50.73576 | 12.27616 | 16882 ft | 539 kts | 211° |
| 2026-04-24 19:01 | 50.70157 | 12.25987 | 17046 ft | 519 kts | 191° |
| 2026-04-24 19:01 | 50.66472 | 12.25941 | 16926 ft | 518 kts | 170° |
| 2026-04-24 19:01 | 50.63043 | 12.27839 | 16856 ft | 520 kts | 151° |
| 2026-04-24 19:01 | 50.60138 | 12.31270 | 16941 ft | 537 kts | 141° |
| 2026-04-24 19:02 | 50.58268 | 12.33655 | 16974 ft | 514 kts | 141° |
| 2026-04-24 19:02 | 50.54577 | 12.38555 | 16446 ft | 533 kts | 128° |
| 2026-04-24 19:02 | 50.53256 | 12.43816 | 16154 ft | 492 kts | 94° |
| 2026-04-24 19:02 | 50.53294 | 12.49190 | 17159 ft | 516 kts | 64° |
| 2026-04-24 19:03 | 50.56261 | 12.52121 | 17678 ft | 537 kts | 0° |
| 2026-04-24 19:03 | 50.59681 | 12.52224 | 16807 ft | 498 kts | 7° |
| 2026-04-24 19:03 | 50.63156 | 12.52842 | 16992 ft | 483 kts | 6° |
| 2026-04-24 19:03 | 50.66509 | 12.53822 | 17447 ft | 498 kts | 5° |
| 2026-04-24 19:04 | 50.69973 | 12.54287 | 17585 ft | 504 kts | 3° |
| 2026-04-24 19:04 | 50.73465 | 12.54796 | 17646 ft | 522 kts | 3° |
| 2026-04-24 19:04 | 50.76866 | 12.55197 | 17629 ft | 488 kts | 0° |
| 2026-04-24 19:04 | 50.80343 | 12.55513 | 17618 ft | 484 kts | 1° |
| 2026-04-24 19:05 | 50.82552 | 12.55806 | 17567 ft | 502 kts | 4° |
| 2026-04-24 19:05 | 50.87065 | 12.58220 | 17298 ft | 502 kts | 23° |
| 2026-04-24 19:05 | 50.89934 | 12.61162 | 16812 ft | 491 kts | 35° |
| 2026-04-24 19:05 | 50.92712 | 12.64461 | 16720 ft | 501 kts | 34° |
| 2026-04-24 19:06 | 50.95583 | 12.67798 | 16721 ft | 533 kts | 28° |
| 2026-04-24 19:06 | 50.98781 | 12.70117 | 17175 ft | 520 kts | 14° |
| 2026-04-24 19:06 | 51.01898 | 12.71305 | 17496 ft | 423 kts | 8° |
| 2026-04-24 19:06 | 51.04827 | 12.71775 | 17793 ft | 438 kts | 350° |
| 2026-04-24 19:07 | 51.07499 | 12.70329 | 17910 ft | 383 kts | 326° |
| 2026-04-24 19:07 | 51.09195 | 12.67593 | 17816 ft | 368 kts | 297° |
| 2026-04-24 19:07 | 51.09665 | 12.65104 | 17879 ft | 324 kts | 275° |
| 2026-04-24 19:07 | 51.08685 | 12.60988 | 17375 ft | 290 kts | 232° |
| 2026-04-24 19:08 | 51.07133 | 12.58507 | 17468 ft | 340 kts | 228° |
| 2026-04-24 19:08 | 51.05022 | 12.55518 | 17522 ft | 484 kts | 222° |
| 2026-04-24 19:08 | 51.02548 | 12.52384 | 17783 ft | 435 kts | 221° |
| 2026-04-24 19:08 | 51.00342 | 12.49756 | 17925 ft | 349 kts | 217° |
| 2026-04-24 19:09 | 50.98168 | 12.47455 | 17974 ft | 408 kts | 219° |
| 2026-04-24 19:09 | 50.95745 | 12.44621 | 18042 ft | 477 kts | 220° |
| 2026-04-24 19:09 | 50.93238 | 12.41474 | 18079 ft | 431 kts | 222° |
| 2026-04-24 19:09 | 50.91041 | 12.38919 | 18107 ft | 390 kts | 220° |
| 2026-04-24 19:10 | 50.88992 | 12.36539 | 18069 ft | 359 kts | 219° |
| 2026-04-24 19:10 | 50.86871 | 12.34155 | 18100 ft | 367 kts | 219° |
| 2026-04-24 19:10 | 50.84758 | 12.31806 | 18125 ft | 365 kts | 219° |
| 2026-04-24 19:10 | 50.82693 | 12.29527 | 18135 ft | 364 kts | 219° |
| 2026-04-24 19:11 | 50.80622 | 12.27236 | 18114 ft | 364 kts | 219° |
| 2026-04-24 19:11 | 50.78545 | 12.24944 | 18121 ft | 363 kts | 219° |
| 2026-04-24 19:11 | 50.76473 | 12.22651 | 18106 ft | 369 kts | 219° |
| 2026-04-24 19:11 | 50.74358 | 12.20301 | 18127 ft | 369 kts | 219° |
| 2026-04-24 19:12 | 50.72178 | 12.18281 | 18082 ft | 367 kts | 205° |
| 2026-04-24 19:12 | 50.69651 | 12.17309 | 18060 ft | 380 kts | 185° |
| 2026-04-24 19:12 | 50.67010 | 12.17645 | 18083 ft | 385 kts | 168° |
| 2026-04-24 19:12 | 50.64582 | 12.19269 | 18089 ft | 387 kts | 150° |
| 2026-04-24 19:13 | 50.63145 | 12.21041 | 18092 ft | 392 kts | 137° |
| 2026-04-24 19:13 | 50.61174 | 12.25722 | 18086 ft | 394 kts | 110° |
| 2026-04-24 19:13 | 50.60598 | 12.29908 | 18104 ft | 387 kts | 90° |
| 2026-04-24 19:13 | 50.60887 | 12.34068 | 18092 ft | 377 kts | 70° |
| 2026-04-24 19:14 | 50.61982 | 12.37789 | 18062 ft | 378 kts | 53° |
| 2026-04-24 19:14 | 50.63741 | 12.40801 | 18091 ft | 372 kts | 34° |
| 2026-04-24 19:14 | 50.65816 | 12.43042 | 18076 ft | 361 kts | 29° |
| 2026-04-24 19:14 | 50.67948 | 12.45262 | 18109 ft | 372 kts | 30° |
| 2026-04-24 19:15 | 50.70078 | 12.47516 | 18121 ft | 365 kts | 30° |
| 2026-04-24 19:15 | 50.72174 | 12.49796 | 18130 ft | 367 kts | 31° |
| 2026-04-24 19:15 | 50.74267 | 12.52105 | 18107 ft | 369 kts | 31° |
| 2026-04-24 19:15 | 50.76349 | 12.54429 | 18098 ft | 363 kts | 31° |
| 2026-04-24 19:16 | 50.80568 | 12.59151 | 18134 ft | 374 kts | 31° |
| 2026-04-24 19:16 | 50.82647 | 12.61470 | 18128 ft | 361 kts | 31° |
| 2026-04-24 19:16 | 50.84709 | 12.63769 | 18089 ft | 367 kts | 31° |
| 2026-04-24 19:17 | 50.86809 | 12.66126 | 18110 ft | 373 kts | 31° |
| 2026-04-24 19:17 | 50.88916 | 12.68480 | 18114 ft | 369 kts | 31° |
| 2026-04-24 19:17 | 50.90995 | 12.70782 | 18095 ft | 361 kts | 31° |
| 2026-04-24 19:17 | 50.93062 | 12.73086 | 18077 ft | 369 kts | 31° |
| 2026-04-24 19:18 | 50.95193 | 12.75471 | 18105 ft | 377 kts | 31° |
| 2026-04-24 19:18 | 50.97308 | 12.77818 | 18121 ft | 368 kts | 31° |
| 2026-04-24 19:18 | 50.99405 | 12.79986 | 18090 ft | 358 kts | 21° |
| 2026-04-24 19:18 | 51.01747 | 12.81243 | 18075 ft | 356 kts | 6° |
| 2026-04-24 19:19 | 51.04217 | 12.81363 | 18087 ft | 350 kts | 348° |
| 2026-04-24 19:19 | 51.06512 | 12.80352 | 18045 ft | 337 kts | 333° |
| 2026-04-24 19:19 | 51.08297 | 12.78558 | 17834 ft | 277 kts | 313° |
| 2026-04-24 19:19 | 51.09871 | 12.76440 | 17403 ft | 332 kts | 319° |
| 2026-04-24 19:20 | 51.11234 | 12.73364 | 17691 ft | 375 kts | 289° |
| 2026-04-24 19:20 | 51.11610 | 12.70519 | 17928 ft | 396 kts | 277° |
| 2026-04-24 19:20 | 51.11536 | 12.66357 | 18116 ft | 379 kts | 262° |
| 2026-04-24 19:20 | 51.10748 | 12.62494 | 18099 ft | 365 kts | 246° |
| 2026-04-24 19:21 | 51.09352 | 12.59229 | 18055 ft | 367 kts | 232° |
| 2026-04-24 19:21 | 51.07445 | 12.56662 | 18030 ft | 367 kts | 215° |
| 2026-04-24 19:21 | 51.05075 | 12.54981 | 17979 ft | 383 kts | 199° |
| 2026-04-24 19:21 | 51.02273 | 12.54285 | 17495 ft | 419 kts | 184° |
| 2026-04-24 19:22 | 50.99442 | 12.55002 | 17184 ft | 405 kts | 167° |
| 2026-04-24 19:22 | 50.96810 | 12.56415 | 17140 ft | 390 kts | 157° |
| 2026-04-24 19:22 | 50.94256 | 12.58404 | 17003 ft | 415 kts | 154° |
| 2026-04-24 19:22 | 50.91633 | 12.60600 | 16989 ft | 456 kts | 153° |
| 2026-04-24 19:23 | 50.88830 | 12.63089 | 16977 ft | 459 kts | 152° |
| 2026-04-24 19:23 | 50.86050 | 12.65585 | 16955 ft | 459 kts | 152° |
| 2026-04-24 19:23 | 50.83247 | 12.68056 | 16908 ft | 463 kts | 152° |
| 2026-04-24 19:23 | 50.80384 | 12.70522 | 16799 ft | 474 kts | 153° |
| 2026-04-24 19:24 | 50.77439 | 12.72985 | 16710 ft | 480 kts | 153° |
| 2026-04-24 19:24 | 50.75590 | 12.76429 | 16860 ft | 356 kts | 70° |
| 2026-04-24 19:24 | 50.76964 | 12.78421 | 16714 ft | 257 kts | 351° |
| 2026-04-24 19:24 | 50.78442 | 12.77135 | 16202 ft | 276 kts | 323° |
| 2026-04-24 19:25 | 50.80150 | 12.75213 | 15781 ft | 346 kts | 324° |
| 2026-04-24 19:25 | 50.82472 | 12.72672 | 15539 ft | 434 kts | 325° |
| 2026-04-24 19:25 | 50.84874 | 12.70115 | 15673 ft | 409 kts | 326° |
| 2026-04-24 19:25 | 50.87192 | 12.67718 | 15791 ft | 388 kts | 326° |
| 2026-04-24 19:26 | 50.89454 | 12.65459 | 15897 ft | 389 kts | 327° |
| 2026-04-24 19:26 | 50.91792 | 12.63180 | 16016 ft | 399 kts | 328° |
| 2026-04-24 19:26 | 50.94233 | 12.60878 | 16084 ft | 415 kts | 328° |
| 2026-04-24 19:26 | 50.96751 | 12.58569 | 16141 ft | 419 kts | 329° |
| 2026-04-24 19:27 | 50.99310 | 12.56297 | 16187 ft | 421 kts | 330° |
| 2026-04-24 19:27 | 51.01894 | 12.54067 | 16221 ft | 424 kts | 330° |
| 2026-04-24 19:27 | 51.04487 | 12.51939 | 16005 ft | 388 kts | 332° |
| 2026-04-24 19:27 | 51.06572 | 12.50646 | 15128 ft | 268 kts | 346° |
| 2026-04-24 19:28 | 51.08263 | 12.50205 | 15075 ft | 235 kts | 352° |
| 2026-04-24 19:28 | 51.09778 | 12.49818 | 14799 ft | 232 kts | 335° |
| 2026-04-24 19:28 | 51.11613 | 12.49059 | 14676 ft | 354 kts | 356° |
| 2026-04-24 19:28 | 51.14728 | 12.50095 | 15095 ft | 541 kts | 23° |
| 2026-04-24 19:29 | 51.20862 | 12.56434 | 18172 ft | 519 kts | 38° |
| 2026-04-24 19:29 | 51.23148 | 12.59886 | 18916 ft | 437 kts | 40° |
| 2026-04-24 19:29 | 51.25433 | 12.63468 | 19723 ft | 466 kts | 42° |
| 2026-04-24 19:30 | 51.27550 | 12.67166 | 20483 ft | 442 kts | 44° |
| 2026-04-24 19:30 | 51.29580 | 12.70873 | 21129 ft | 438 kts | 46° |
| 2026-04-24 19:30 | 51.31582 | 12.74785 | 21783 ft | 475 kts | 48° |
| 2026-04-24 19:30 | 51.33627 | 12.78820 | 21647 ft | 453 kts | 47° |
| 2026-04-24 19:31 | 51.35602 | 12.82860 | 21442 ft | 486 kts | 49° |
| 2026-04-24 19:31 | 51.37931 | 12.87359 | 21331 ft | 552 kts | 46° |
| 2026-04-24 19:31 | 51.40104 | 12.92409 | 21563 ft | 539 kts | 58° |
| 2026-04-24 19:31 | 51.41795 | 12.97327 | 21665 ft | 495 kts | 56° |
| 2026-04-24 19:32 | 51.43598 | 13.01927 | 21727 ft | 482 kts | 49° |
| 2026-04-24 19:32 | 51.45956 | 13.05411 | 22000 ft | 441 kts | 17° |
| 2026-04-24 19:32 | 51.49094 | 13.06211 | 21268 ft | 492 kts | 354° |
| 2026-04-24 19:32 | 51.52292 | 13.04281 | 21770 ft | 518 kts | 336° |
| 2026-04-24 19:33 | 51.55804 | 13.02104 | 22132 ft | 528 kts | 339° |
| 2026-04-24 19:33 | 51.59137 | 13.00305 | 22215 ft | 488 kts | 340° |
| 2026-04-24 19:33 | 51.62122 | 12.98876 | 21974 ft | 428 kts | 340° |
| 2026-04-24 19:33 | 51.65056 | 12.97403 | 21964 ft | 449 kts | 340° |
| 2026-04-24 19:34 | 51.68116 | 12.95862 | 22053 ft | 433 kts | 341° |
| 2026-04-24 19:34 | 51.71137 | 12.94548 | 22039 ft | 452 kts | 342° |
| 2026-04-24 19:34 | 51.74181 | 12.93192 | 22043 ft | 449 kts | 341° |
| 2026-04-24 19:34 | 51.77171 | 12.91925 | 22002 ft | 445 kts | 342° |
| 2026-04-24 19:35 | 51.80185 | 12.90577 | 22010 ft | 450 kts | 341° |
| 2026-04-24 19:35 | 51.83255 | 12.89209 | 22075 ft | 468 kts | 342° |
| 2026-04-24 19:35 | 51.86281 | 12.87905 | 21969 ft | 448 kts | 342° |
| 2026-04-24 19:35 | 51.89326 | 12.86596 | 21947 ft | 456 kts | 342° |
| 2026-04-24 19:36 | 51.92428 | 12.85319 | 21978 ft | 447 kts | 344° |
| 2026-04-24 19:36 | 51.95419 | 12.84217 | 22006 ft | 452 kts | 344° |
| 2026-04-24 19:36 | 51.98512 | 12.83049 | 22050 ft | 445 kts | 344° |
| 2026-04-24 19:36 | 52.01546 | 12.81935 | 22058 ft | 444 kts | 344° |
| 2026-04-24 19:37 | 52.04531 | 12.80905 | 22055 ft | 446 kts | 345° |
| 2026-04-24 19:37 | 52.07601 | 12.79866 | 22065 ft | 451 kts | 345° |
| 2026-04-24 19:37 | 52.10697 | 12.78762 | 22013 ft | 459 kts | 344° |
| 2026-04-24 19:37 | 52.13815 | 12.77627 | 21972 ft | 454 kts | 344° |
| 2026-04-24 19:38 | 52.16878 | 12.76490 | 21874 ft | 455 kts | 344° |
| 2026-04-24 19:38 | 52.19937 | 12.75397 | 21891 ft | 451 kts | 344° |
| 2026-04-24 19:38 | 52.23030 | 12.74239 | 21965 ft | 466 kts | 343° |
| 2026-04-24 19:38 | 52.26156 | 12.72969 | 21971 ft | 459 kts | 343° |
| 2026-04-24 19:39 | 52.29273 | 12.71725 | 21968 ft | 463 kts | 343° |
| 2026-04-24 19:39 | 52.32339 | 12.70481 | 22056 ft | 452 kts | 343° |
| 2026-04-24 19:39 | 52.35394 | 12.69184 | 22052 ft | 468 kts | 340° |
| 2026-04-24 19:39 | 52.38450 | 12.67425 | 22090 ft | 450 kts | 336° |
| 2026-04-24 19:40 | 52.41283 | 12.65380 | 22119 ft | 447 kts | 330° |
| 2026-04-24 19:40 | 52.44083 | 12.62949 | 22144 ft | 463 kts | 330° |
| 2026-04-24 19:40 | 52.46833 | 12.60709 | 22139 ft | 443 kts | 332° |
| 2026-04-24 19:40 | 52.49582 | 12.58498 | 22117 ft | 440 kts | 331° |
| 2026-04-24 19:41 | 52.52330 | 12.56177 | 22097 ft | 445 kts | 329° |
| 2026-04-24 19:41 | 52.55075 | 12.53768 | 22019 ft | 453 kts | 329° |
| 2026-04-24 19:41 | 52.57831 | 12.51372 | 21950 ft | 444 kts | 329° |
| 2026-04-24 19:41 | 52.60563 | 12.48998 | 21938 ft | 443 kts | 330° |
| 2026-04-24 19:42 | 52.63297 | 12.46661 | 21882 ft | 444 kts | 329° |
| 2026-04-24 19:42 | 52.66012 | 12.44203 | 21884 ft | 443 kts | 329° |
| 2026-04-24 19:42 | 52.68690 | 12.41786 | 21874 ft | 439 kts | 328° |
| 2026-04-24 19:42 | 52.71415 | 12.39168 | 21885 ft | 463 kts | 327° |
| 2026-04-24 19:43 | 52.74148 | 12.36339 | 21936 ft | 462 kts | 325° |
| 2026-04-24 19:43 | 52.76857 | 12.33513 | 21980 ft | 457 kts | 327° |
| 2026-04-24 19:43 | 52.79571 | 12.30901 | 22004 ft | 449 kts | 328° |
| 2026-04-24 19:43 | 52.82292 | 12.28366 | 21991 ft | 439 kts | 324° |
| 2026-04-24 19:44 | 52.84644 | 12.25185 | 22015 ft | 448 kts | 318° |
| 2026-04-24 19:44 | 52.87023 | 12.21843 | 22018 ft | 440 kts | 318° |
| 2026-04-24 19:44 | 52.89395 | 12.18560 | 21968 ft | 459 kts | 319° |
| 2026-04-24 19:44 | 52.91814 | 12.15284 | 21902 ft | 447 kts | 319° |
| 2026-04-24 19:45 | 52.94217 | 12.12004 | 21833 ft | 452 kts | 319° |
| 2026-04-24 19:45 | 52.96646 | 12.08615 | 21816 ft | 460 kts | 318° |
| 2026-04-24 19:45 | 52.99030 | 12.05363 | 21963 ft | 431 kts | 321° |
| 2026-04-24 19:45 | 53.01802 | 12.02786 | 21743 ft | 456 kts | 335° |
| 2026-04-24 19:46 | 53.04801 | 12.01181 | 21429 ft | 451 kts | 347° |
| 2026-04-24 19:46 | 53.07950 | 12.00638 | 20927 ft | 462 kts | 354° |
| 2026-04-24 19:46 | 53.11085 | 12.00847 | 20481 ft | 434 kts | 4° |
| 2026-04-24 19:46 | 53.13896 | 12.01823 | 20266 ft | 411 kts | 9° |
| 2026-04-24 19:47 | 53.16721 | 12.02810 | 20204 ft | 406 kts | 6° |
| 2026-04-24 19:47 | 53.19779 | 12.03634 | 20425 ft | 529 kts | 4° |
| 2026-04-24 19:47 | 53.23669 | 12.04084 | 21131 ft | 558 kts | 0° |
| 2026-04-24 19:47 | 53.27095 | 12.04492 | 21471 ft | 455 kts | 1° |
| 2026-04-24 19:48 | 53.30099 | 12.04975 | 21752 ft | 410 kts | 2° |
| 2026-04-24 19:48 | 53.32918 | 12.05486 | 20038 ft | 412 kts | 2° |
| 2026-04-24 19:48 | 53.38646 | 12.06461 | 16867 ft | 414 kts | 3° |
| 2026-04-24 19:49 | 53.44452 | 12.07843 | 14992 ft | 423 kts | 7° |
| 2026-04-24 19:49 | 53.50229 | 12.09963 | 14936 ft | 421 kts | 10° |
| 2026-04-24 19:50 | 53.58787 | 12.13741 | 15109 ft | 425 kts | 11° |
| 2026-04-24 19:50 | 53.61577 | 12.15013 | 15127 ft | 416 kts | 11° |
| 2026-04-24 19:51 | 53.67004 | 12.17562 | 13199 ft | 393 kts | 12° |
| 2026-04-24 19:51 | 53.69584 | 12.18866 | 11789 ft | 380 kts | 13° |
| 2026-04-24 19:52 | 53.74340 | 12.21480 | 10214 ft | 328 kts | 14° |
| 2026-04-24 19:52 | 53.76345 | 12.22695 | 9682 ft | 292 kts | 15° |
| 2026-04-24 19:52 | 53.78186 | 12.23837 | 8622 ft | 271 kts | 15° |
| 2026-04-24 19:52 | 53.79912 | 12.24892 | 7608 ft | 266 kts | 15° |
| 2026-04-24 19:53 | 53.81683 | 12.25940 | 6666 ft | 267 kts | 14° |
| 2026-04-24 19:53 | 53.83430 | 12.26944 | 5781 ft | 263 kts | 15° |
| 2026-04-24 19:53 | 53.86812 | 12.28875 | 5040 ft | 253 kts | 14° |
| 2026-04-24 19:54 | 53.88466 | 12.29821 | 4992 ft | 249 kts | 15° |
| 2026-04-24 19:54 | 53.90093 | 12.30744 | 4967 ft | 244 kts | 15° |
| 2026-04-24 19:54 | 53.91683 | 12.31668 | 4960 ft | 239 kts | 15° |
| 2026-04-24 19:54 | 53.93226 | 12.32590 | 4924 ft | 232 kts | 14° |
| 2026-04-24 19:55 | 53.93723 | 12.32868 | 4917 ft | 233 kts | 14° |
| 2026-04-24 19:55 | 53.96214 | 12.34874 | 4713 ft | 254 kts | 48° |
| 2026-04-24 19:55 | 53.96767 | 12.37795 | 3905 ft | 260 kts | 96° |
| 2026-04-24 19:55 | 53.96418 | 12.40637 | 3437 ft | 236 kts | 101° |
| 2026-04-24 19:56 | 53.96095 | 12.43190 | 3174 ft | 204 kts | 99° |
| 2026-04-24 19:56 | 53.95822 | 12.45464 | 3139 ft | 204 kts | 100° |
| 2026-04-24 19:56 | 53.95528 | 12.47826 | 3145 ft | 205 kts | 101° |
| 2026-04-24 19:56 | 53.95236 | 12.50158 | 3039 ft | 205 kts | 101° |
| 2026-04-24 19:57 | 53.94953 | 12.52472 | 2963 ft | 206 kts | 99° |
| 2026-04-24 19:57 | 53.94653 | 12.55054 | 2998 ft | 236 kts | 100° |
| 2026-04-24 19:57 | 53.94225 | 12.57896 | 3003 ft | 240 kts | 122° |
| 2026-04-24 19:57 | 53.92925 | 12.59542 | 2891 ft | 245 kts | 174° |
| 2026-04-24 19:58 | 53.91231 | 12.58864 | 3054 ft | 279 kts | 224° |
| 2026-04-24 19:58 | 53.90253 | 12.55614 | 3151 ft | 348 kts | 259° |
| 2026-04-24 19:58 | 53.90041 | 12.51663 | 3048 ft | 313 kts | 276° |
| 2026-04-24 19:58 | 53.90252 | 12.48262 | 2772 ft | 270 kts | 277° |
| 2026-04-24 19:59 | 53.90440 | 12.45468 | 2397 ft | 203 kts | 277° |
| 2026-04-24 19:59 | 53.90565 | 12.43338 | 2075 ft | 158 kts | 277° |
| 2026-04-24 19:59 | 53.90684 | 12.41474 | 1830 ft | 157 kts | 278° |
| 2026-04-24 19:59 | 53.90821 | 12.39656 | 1603 ft | 158 kts | 278° |
| 2026-04-24 20:00 | 53.90977 | 12.37822 | 1274 ft | 156 kts | 279° |
| 2026-04-24 20:00 | 53.91157 | 12.35893 | 1023 ft | 181 kts | 280° |
| 2026-04-24 20:00 | 53.91338 | 12.33791 | 770 ft | 185 kts | 278° |
| 2026-04-24 20:00 | 53.91511 | 12.31708 | 477 ft | 172 kts | 277° |
| 2026-04-24 20:01 | 53.91658 | 12.29845 | 169 ft | 147 kts | 277° |
| 2026-04-24 20:01 | 53.91768 | 12.28404 | 146 ft | 97 kts | 277° |
| 2026-04-24 20:01 | 53.91843 | 12.27468 | 145 ft | 68 kts | 277° |
| 2026-04-24 20:01 | 53.91898 | 12.26797 | 145 ft | 42 kts | 276° |
| 2026-04-24 20:02 | 53.91922 | 12.26508 | 146 ft | 34 kts | 278° |
| 2026-04-24 20:02 | 53.91954 | 12.26150 | 144 ft | 16 kts | 288° |
| 2026-04-24 20:02 | 53.92041 | 12.26123 | 145 ft | 15 kts | 26° |
| 2026-04-24 20:02 | 53.92139 | 12.26202 | 145 ft | 16 kts | 27° |
| 2026-04-24 20:03 | 53.92232 | 12.26293 | 145 ft | 14 kts | 71° |
| 2026-04-24 20:03 | 53.92230 | 12.26452 | 145 ft | 14 kts | 97° |
| 2026-04-24 20:03 | 53.92251 | 12.26580 | 145 ft | 12 kts | 9° |
| 2026-04-24 20:03 | 53.92298 | 12.26647 | 145 ft | 0 kts | 92° |